Time;durP1;ratioP1;P1;durP2;ratioP2;P2;SDS_P1;SDS_P2;PMS_P1;PMS_P2;Temp;Humidity;BMP_temperature;BMP_pressure;BME280_temperature;BME280_humidity;BME280_pressure;Samples;Min_cycle;Max_cycle;Signal;HPM_P1;HPM_P2
2021/08/20 00:02:10;;;;;;;15.35;12.02;;;17.10;98.10;;;;;;5057273;28;20079;-80
2021/08/20 00:04:36;;;;;;;14.13;12.55;;;17.10;98.10;;;;;;5041063;28;20021;-80
2021/08/20 00:07:02;;;;;;;15.30;12.82;;;17.10;98.10;;;;;;5075298;28;20219;-80
2021/08/20 00:09:28;;;;;;;15.00;12.00;;;17.10;98.00;;;;;;5037613;28;20021;-80
2021/08/20 00:11:54;;;;;;;15.60;11.82;;;17.10;98.00;;;;;;5037247;28;20450;-80
2021/08/20 00:14:20;;;;;;;14.85;12.55;;;17.10;98.00;;;;;;5039095;28;20099;-80
2021/08/20 00:16:46;;;;;;;14.82;11.50;;;17.00;97.80;;;;;;5040777;28;20024;-80
2021/08/20 00:19:12;;;;;;;13.25;11.85;;;17.00;97.80;;;;;;5057167;28;20377;-80
2021/08/20 00:21:38;;;;;;;14.38;12.02;;;17.00;97.80;;;;;;5057223;28;20439;-80
2021/08/20 00:24:05;;;;;;;14.35;12.05;;;17.00;97.80;;;;;;5057000;28;20051;-80
2021/08/20 00:26:30;;;;;;;15.30;11.85;;;17.00;97.90;;;;;;5037422;28;20060;-80
2021/08/20 00:28:56;;;;;;;13.60;11.18;;;17.00;97.80;;;;;;5049785;28;20064;-80
2021/08/20 00:31:22;;;;;;;14.00;11.27;;;17.00;97.80;;;;;;5040086;28;20448;-80
2021/08/20 00:33:48;;;;;;;12.68;11.23;;;16.90;97.80;;;;;;5076834;28;20103;-80
2021/08/20 00:36:14;;;;;;;12.82;10.75;;;16.90;97.70;;;;;;5060470;28;20056;-80
2021/08/20 00:38:39;;;;;;;13.65;11.15;;;16.90;97.70;;;;;;5020367;28;20108;-80
2021/08/20 00:41:12;;;;;;;13.82;11.32;;;16.90;97.70;;;;;;5040444;28;20462;-80
2021/08/20 00:43:43;;;;;;;16.65;12.60;;;16.90;97.70;;;;;;5053325;28;20028;-80
2021/08/20 00:46:09;;;;;;;14.75;11.82;;;16.90;97.70;;;;;;5033871;28;20442;-80
2021/08/20 00:48:35;;;;;;;14.45;11.55;;;16.90;97.80;;;;;;5055450;28;20488;-80
2021/08/20 00:51:19;;;;;;;14.60;12.27;;;16.90;97.80;;;;;;5047911;28;20045;-80
2021/08/20 00:53:46;;;;;;;14.70;11.88;;;16.80;97.60;;;;;;5053250;28;20020;-80
2021/08/20 00:56:13;;;;;;;13.70;12.15;;;16.80;97.60;;;;;;5048915;28;20111;-80
2021/08/20 00:58:40;;;;;;;15.60;11.70;;;16.80;97.70;;;;;;5039789;28;20588;-82
2021/08/20 01:01:08;;;;;;;12.18;10.85;;;16.80;97.70;;;;;;5055354;28;20020;-82
2021/08/20 01:03:35;;;;;;;13.60;11.23;;;16.80;97.60;;;;;;5038035;28;20021;-82
2021/08/20 01:06:09;;;;;;;13.15;10.57;;;16.80;97.60;;;;;;5056052;28;20024;-80
2021/08/20 01:08:37;;;;;;;14.88;10.63;;;16.70;97.50;;;;;;5056294;28;20081;-80
2021/08/20 01:11:07;;;;;;;14.07;11.30;;;16.80;97.60;;;;;;5046862;28;20020;-80
2021/08/20 01:13:41;;;;;;;12.35;10.10;;;16.70;97.60;;;;;;5062082;28;20074;-80
2021/08/20 01:16:08;;;;;;;16.00;11.60;;;16.70;97.70;;;;;;5056117;28;20033;-80
2021/08/20 01:18:39;;;;;;;12.15;10.27;;;16.70;97.80;;;;;;5033199;28;20473;-80
2021/08/20 01:21:07;;;;;;;;;;;16.70;97.80;;;;;;5056378;28;20135;-80
2021/08/20 01:23:33;;;;;;;13.13;9.85;;;16.70;97.60;;;;;;5055874;28;19999;-80
2021/08/20 01:25:59;;;;;;;14.73;10.43;;;16.70;97.80;;;;;;5036082;28;20381;-80
2021/08/20 01:28:26;;;;;;;13.25;10.68;;;16.60;97.80;;;;;;5046470;28;20100;-80
2021/08/20 01:31:01;;;;;;;14.88;10.85;;;16.70;97.80;;;;;;5055698;28;20017;-80
2021/08/20 01:33:27;;;;;;;13.68;10.35;;;16.60;97.60;;;;;;5055967;28;20028;-80
2021/08/20 01:35:53;;;;;;;15.15;10.82;;;16.60;97.50;;;;;;5055692;28;20082;-80
2021/08/20 01:38:19;;;;;;;11.85;10.35;;;16.60;97.60;;;;;;5043680;28;20428;-80
2021/08/20 01:40:44;;;;;;;13.88;11.00;;;16.60;97.70;;;;;;5039007;28;20429;-80
2021/08/20 01:43:13;;;;;;;11.93;10.70;;;16.60;97.70;;;;;;5025007;28;20116;-80
2021/08/20 01:45:39;;;;;;;13.43;10.65;;;16.60;97.80;;;;;;5039043;28;20043;-80
2021/08/20 01:48:05;;;;;;;16.40;11.35;;;16.60;97.70;;;;;;5035595;28;20017;-80
2021/08/20 01:50:32;;;;;;;12.85;10.38;;;16.50;97.60;;;;;;5045818;28;20386;-81
2021/08/20 01:53:00;;;;;;;15.00;11.43;;;16.50;97.60;;;;;;5056996;28;20029;-80
2021/08/20 01:55:26;;;;;;;14.75;10.77;;;16.50;97.70;;;;;;5028612;28;20032;-80
2021/08/20 01:57:51;;;;;;;19.05;11.63;;;16.50;97.70;;;;;;5038559;28;20036;-80
2021/08/20 02:00:17;;;;;;;13.07;11.48;;;16.50;97.80;;;;;;5022925;28;20040;-80
2021/08/20 02:02:43;;;;;;;14.15;12.15;;;16.50;97.70;;;;;;5044860;28;20025;-80
2021/08/20 02:05:09;;;;;;;15.60;11.95;;;16.50;97.70;;;;;;5034052;28;20389;-80
2021/08/20 02:07:36;;;;;;;14.88;11.77;;;16.50;97.80;;;;;;5072034;28;20033;-80
2021/08/20 02:10:07;;;;;;;14.05;11.63;;;16.50;97.80;;;;;;5038841;28;20017;-80
2021/08/20 02:12:34;;;;;;;13.95;11.68;;;16.50;97.80;;;;;;5073095;28;20070;-80
2021/08/20 02:15:00;;;;;;;15.02;11.90;;;16.50;97.80;;;;;;5055281;28;20021;-80
2021/08/20 02:17:26;;;;;;;16.20;12.77;;;16.50;97.60;;;;;;5055278;28;20067;-80
2021/08/20 02:19:52;;;;;;;14.25;12.75;;;16.40;97.50;;;;;;5055119;28;20052;-80
2021/08/20 02:22:17;;;;;;;17.42;13.80;;;16.40;97.60;;;;;;5055017;28;20559;-80
2021/08/20 02:24:43;;;;;;;19.00;14.52;;;16.40;97.60;;;;;;5022067;28;20021;-80
2021/08/20 02:27:09;;;;;;;16.83;12.88;;;16.40;97.70;;;;;;5071613;28;20497;-80
2021/08/20 02:29:34;;;;;;;15.70;12.68;;;16.30;97.70;;;;;;5035095;28;20030;-80
2021/08/20 02:32:00;;;;;;;14.90;12.82;;;16.30;97.70;;;;;;5046790;28;20048;-80
2021/08/20 02:34:26;;;;;;;15.80;12.77;;;16.40;97.80;;;;;;5038375;28;20013;-80
2021/08/20 02:36:51;;;;;;;14.80;12.40;;;16.30;97.80;;;;;;5064994;28;20027;-80
2021/08/20 02:39:17;;;;;;;16.75;13.02;;;16.40;97.90;;;;;;5038347;28;20032;-80
2021/08/20 02:41:43;;;;;;;17.85;13.65;;;16.40;97.90;;;;;;5037576;28;20100;-80
2021/08/20 02:44:09;;;;;;;16.75;13.77;;;16.40;97.80;;;;;;5037949;28;20391;-80
2021/08/20 02:46:38;;;;;;;16.25;13.75;;;16.40;97.90;;;;;;5054497;28;20041;-80
2021/08/20 02:49:04;;;;;;;16.23;12.75;;;16.30;97.90;;;;;;5054788;28;20099;-80
2021/08/20 02:51:30;;;;;;;19.17;14.77;;;16.40;97.90;;;;;;5050984;28;20053;-80
2021/08/20 02:53:56;;;;;;;16.40;14.52;;;16.40;97.80;;;;;;5038332;28;20119;-80
2021/08/20 02:56:21;;;;;;;17.65;14.82;;;16.40;97.90;;;;;;5053954;28;20112;-80
2021/08/20 02:58:47;;;;;;;19.73;14.85;;;16.40;97.80;;;;;;5029429;28;20147;-80
2021/08/20 03:01:14;;;;;;;17.77;15.32;;;16.40;97.90;;;;;;5035266;28;20105;-81
2021/08/20 03:03:40;;;;;;;19.13;16.17;;;16.30;97.90;;;;;;5041573;28;20425;-80
2021/08/20 03:06:25;;;;;;;16.90;15.07;;;16.30;97.90;;;;;;5037986;28;20043;-80
2021/08/20 03:08:51;;;;;;;18.63;15.27;;;16.30;98.00;;;;;;5059791;28;20020;-80
2021/08/20 03:11:17;;;;;;;19.55;15.60;;;16.30;98.00;;;;;;5052137;28;20028;-81
2021/08/20 03:13:42;;;;;;;20.95;17.02;;;16.40;98.10;;;;;;5058444;28;20039;-80
2021/08/20 03:16:08;;;;;;;22.50;17.33;;;16.40;98.10;;;;;;5022131;28;20029;-80
2021/08/20 03:18:34;;;;;;;21.02;16.73;;;16.40;98.20;;;;;;5018932;28;20098;-80
2021/08/20 03:20:59;;;;;;;18.95;16.35;;;16.40;98.20;;;;;;5052887;28;20409;-81
2021/08/20 03:23:25;;;;;;;21.75;17.83;;;16.40;98.20;;;;;;5021819;28;20405;-80
2021/08/20 03:25:51;;;;;;;24.77;18.05;;;16.40;98.40;;;;;;5055733;28;20387;-80
2021/08/20 03:28:16;;;;;;;27.40;20.95;;;16.40;98.70;;;;;;5041437;28;20064;-81
2021/08/20 03:30:42;;;;;;;21.95;17.88;;;16.40;98.70;;;;;;5022956;28;20033;-80
2021/08/20 03:33:08;;;;;;;24.00;17.55;;;16.40;98.70;;;;;;5045837;28;20047;-80
2021/08/20 03:35:33;;;;;;;25.77;19.80;;;16.40;98.80;;;;;;5038238;28;20017;-80
2021/08/20 03:37:59;;;;;;;23.05;18.60;;;16.40;98.90;;;;;;5010256;28;20124;-80
2021/08/20 03:40:26;;;;;;;23.45;16.65;;;16.40;98.80;;;;;;5041448;28;20028;-80
2021/08/20 03:42:55;;;;;;;22.17;17.33;;;16.40;98.80;;;;;;5060395;28;20510;-80
2021/08/20 03:45:22;;;;;;;19.50;16.75;;;16.40;98.90;;;;;;5057849;28;20075;-80
2021/08/20 03:47:48;;;;;;;20.98;16.52;;;16.40;98.90;;;;;;5061636;28;20478;-80
2021/08/20 03:50:14;;;;;;;21.23;17.27;;;16.40;98.90;;;;;;5041138;28;20023;-80
2021/08/20 03:52:40;;;;;;;21.65;17.98;;;16.40;98.90;;;;;;5041268;28;20056;-80
2021/08/20 03:55:06;;;;;;;21.50;17.70;;;16.40;98.90;;;;;;5024777;28;20025;-80
2021/08/20 03:57:32;;;;;;;21.80;17.30;;;16.40;98.90;;;;;;5075451;28;20033;-80
2021/08/20 03:59:57;;;;;;;21.08;17.98;;;16.40;98.90;;;;;;5027069;28;20028;-80
2021/08/20 04:02:23;;;;;;;25.25;18.67;;;16.50;98.90;;;;;;5037620;28;20469;-80
2021/08/20 04:04:51;;;;;;;24.52;18.85;;;16.40;98.90;;;;;;5057661;28;20032;-80
2021/08/20 04:07:20;;;;;;;25.15;18.27;;;16.40;98.90;;;;;;5049441;28;20025;-80
2021/08/20 04:09:48;;;;;;;22.35;17.58;;;16.40;99.00;;;;;;5052543;28;20029;-80
2021/08/20 04:12:17;;;;;;;22.67;16.55;;;16.40;99.00;;;;;;5040845;28;20020;-80
2021/08/20 04:14:43;;;;;;;25.67;19.52;;;16.50;99.00;;;;;;5047721;28;20029;-80
2021/08/20 04:17:09;;;;;;;27.02;17.88;;;16.40;99.00;;;;;;5053038;28;20024;-80
2021/08/20 04:19:34;;;;;;;24.85;18.05;;;16.50;99.00;;;;;;5040598;28;20036;-80
2021/08/20 04:22:00;;;;;;;24.35;18.90;;;16.40;99.00;;;;;;5037332;28;20029;-80
2021/08/20 04:24:26;;;;;;;24.38;18.25;;;16.40;99.00;;;;;;5060608;28;20017;-80
2021/08/20 04:26:51;;;;;;;25.85;18.83;;;16.40;99.00;;;;;;5054024;28;20037;-80
2021/08/20 04:29:17;;;;;;;26.88;20.15;;;16.40;99.00;;;;;;5054819;28;20051;-80
2021/08/20 04:31:43;;;;;;;23.70;18.85;;;16.40;99.10;;;;;;5040615;28;20025;-80
2021/08/20 04:34:08;;;;;;;24.33;19.60;;;16.40;99.10;;;;;;5055649;28;20029;-80
2021/08/20 04:36:34;;;;;;;24.80;18.90;;;16.40;99.20;;;;;;5028041;28;20119;-80
2021/08/20 04:39:00;;;;;;;21.63;17.35;;;16.40;99.20;;;;;;5057079;28;20025;-80
2021/08/20 04:41:26;;;;;;;23.55;18.55;;;16.40;99.20;;;;;;5036648;28;20032;-80
2021/08/20 04:43:51;;;;;;;22.35;17.92;;;16.40;99.20;;;;;;5036842;28;20057;-80
2021/08/20 04:46:17;;;;;;;23.55;18.85;;;16.40;99.20;;;;;;5040091;28;20025;-80
2021/08/20 04:48:43;;;;;;;24.08;18.42;;;16.40;99.30;;;;;;5039991;28;20099;-80
2021/08/20 04:51:09;;;;;;;20.73;16.40;;;16.40;99.30;;;;;;5077431;23;20053;-83
2021/08/20 04:53:35;;;;;;;19.75;16.35;;;16.50;99.30;;;;;;5020189;28;20029;-83
2021/08/20 04:56:01;;;;;;;20.63;15.80;;;16.50;99.30;;;;;;5029715;28;20028;-83
2021/08/20 04:58:30;;;;;;;20.52;16.60;;;16.50;99.30;;;;;;5019098;28;20025;-83
2021/08/20 05:00:55;;;;;;;24.55;18.65;;;16.50;99.30;;;;;;5036112;28;20048;-83
2021/08/20 05:03:22;;;;;;;27.15;19.75;;;16.50;99.40;;;;;;5016345;28;20045;-83
2021/08/20 05:05:48;;;;;;;27.13;19.63;;;16.50;99.40;;;;;;5035473;28;20454;-83
2021/08/20 05:08:14;;;;;;;27.40;20.13;;;16.50;99.50;;;;;;5035469;28;20541;-83
2021/08/20 05:10:40;;;;;;;23.33;17.98;;;16.50;99.50;;;;;;5035511;28;20063;-83
2021/08/20 05:13:06;;;;;;;24.85;18.52;;;16.50;99.50;;;;;;5035730;28;20401;-83
2021/08/20 05:15:32;;;;;;;23.70;17.85;;;16.50;99.60;;;;;;5021421;28;20026;-84
2021/08/20 05:17:58;;;;;;;26.13;20.33;;;16.50;99.60;;;;;;5035443;28;20061;-84
2021/08/20 05:20:24;;;;;;;24.50;18.95;;;16.50;99.60;;;;;;5035334;28;20033;-84
2021/08/20 05:22:52;;;;;;;24.80;18.30;;;16.60;99.70;;;;;;5035340;28;20117;-84
2021/08/20 05:25:18;;;;;;;23.80;17.00;;;16.60;99.70;;;;;;5035202;28;20025;-84
2021/08/20 05:27:45;;;;;;;28.08;20.42;;;16.60;99.70;;;;;;5052943;28;20528;-84
2021/08/20 05:30:12;;;;;;;26.75;19.63;;;16.60;99.70;;;;;;5035052;28;20063;-83
2021/08/20 05:32:38;;;;;;;23.33;17.75;;;16.60;99.70;;;;;;5002062;28;20033;-84
2021/08/20 05:35:05;;;;;;;26.33;19.60;;;16.60;99.80;;;;;;5034734;28;20024;-83
2021/08/20 05:37:31;;;;;;;26.70;19.25;;;16.60;99.80;;;;;;5034806;28;20060;-84
2021/08/20 05:39:56;;;;;;;30.15;20.02;;;16.60;99.80;;;;;;5018605;28;20051;-83
2021/08/20 05:42:22;;;;;;;30.27;19.40;;;16.60;99.80;;;;;;5052961;28;20025;-84
2021/08/20 05:44:48;;;;;;;23.48;17.63;;;16.60;99.80;;;;;;5034949;28;20017;-84
2021/08/20 05:47:14;;;;;;;27.40;19.58;;;16.70;99.90;;;;;;5018494;28;20040;-84
2021/08/20 05:49:39;;;;;;;25.10;19.08;;;16.70;99.90;;;;;;5034674;28;20029;-83
2021/08/20 05:52:05;;;;;;;27.83;19.20;;;16.70;99.90;;;;;;5052400;28;20056;-84
2021/08/20 05:54:31;;;;;;;27.27;19.35;;;16.70;99.90;;;;;;5034624;28;20032;-83
2021/08/20 05:56:59;;;;;;;25.10;19.90;;;16.70;99.90;;;;;;5018226;28;20036;-83
2021/08/20 05:59:25;;;;;;;26.52;19.58;;;16.70;99.90;;;;;;5034702;28;20033;-84
2021/08/20 06:01:50;;;;;;;26.67;19.60;;;16.70;99.90;;;;;;5034314;28;20044;-83
2021/08/20 06:04:16;;;;;;;25.77;18.58;;;16.70;99.90;;;;;;5036864;28;20033;-84
2021/08/20 06:06:42;;;;;;;24.10;17.60;;;16.70;99.90;;;;;;5031402;28;20024;-83
2021/08/20 06:09:08;;;;;;;23.77;17.38;;;16.70;99.90;;;;;;5034111;28;20386;-83
2021/08/20 06:12:30;;;;;;;25.27;17.30;;;16.80;99.90;;;;;;5022706;28;20025;-84
2021/08/20 06:14:57;;;;;;;23.38;17.17;;;16.80;99.90;;;;;;5011708;28;20073;-83
2021/08/20 06:17:23;;;;;;;22.83;17.17;;;16.80;99.90;;;;;;4993165;28;20606;-83
2021/08/20 06:19:48;;;;;;;25.52;18.38;;;16.80;99.90;;;;;;4996183;28;20038;-83
2021/08/20 06:22:14;;;;;;;25.17;18.85;;;16.80;99.90;;;;;;4976887;28;20045;-84
2021/08/20 06:24:40;;;;;;;24.75;18.10;;;16.80;99.90;;;;;;4977132;28;20563;-83
2021/08/20 06:27:06;;;;;;;22.70;17.27;;;16.80;99.90;;;;;;4998851;28;20025;-83
2021/08/20 06:29:31;;;;;;;24.13;16.40;;;16.90;99.90;;;;;;4993341;28;20038;-83
2021/08/20 06:31:57;;;;;;;24.58;17.65;;;16.90;99.90;;;;;;4976476;28;20446;-83
2021/08/20 06:34:23;;;;;;;22.50;15.55;;;16.90;99.90;;;;;;4992507;28;20037;-85
2021/08/20 06:36:48;;;;;;;23.25;16.48;;;16.90;99.90;;;;;;4976973;28;20411;-84
2021/08/20 06:39:14;;;;;;;23.10;17.55;;;16.90;99.90;;;;;;4977038;28;20030;-84
2021/08/20 06:41:40;;;;;;;25.05;17.38;;;17.00;99.90;;;;;;4976240;28;20156;-84
2021/08/20 06:44:06;;;;;;;25.75;16.98;;;17.00;99.90;;;;;;4976867;28;20133;-84
2021/08/20 06:46:31;;;;;;;19.13;15.18;;;17.00;99.90;;;;;;5025782;28;20100;-84
2021/08/20 06:48:57;;;;;;;24.17;17.02;;;17.10;99.90;;;;;;5038016;28;20035;-85
2021/08/20 06:51:23;;;;;;;22.05;16.58;;;17.10;99.90;;;;;;5018128;28;20124;-84
2021/08/20 06:53:49;;;;;;;22.05;16.13;;;17.10;99.90;;;;;;5052130;28;20473;-84
2021/08/20 06:56:14;;;;;;;24.75;17.33;;;17.10;99.90;;;;;;5021516;28;20021;-84
2021/08/20 06:58:40;;;;;;;21.75;15.65;;;17.20;99.90;;;;;;5021476;28;20037;-85
2021/08/20 07:01:07;;;;;;;22.02;16.10;;;17.20;99.90;;;;;;5038142;28;20057;-84
2021/08/20 07:03:33;;;;;;;21.83;14.82;;;17.20;99.90;;;;;;5037971;28;20501;-84
2021/08/20 07:05:59;;;;;;;20.15;15.32;;;17.30;99.90;;;;;;5037774;28;20545;-83
2021/08/20 07:08:24;;;;;;;19.00;14.35;;;17.40;99.90;;;;;;5037775;28;20157;-84
2021/08/20 07:10:50;;;;;;;22.20;15.43;;;17.40;99.90;;;;;;5001661;28;20029;-84
2021/08/20 07:13:16;;;;;;;18.33;14.38;;;17.40;99.90;;;;;;5027326;28;20037;-84
2021/08/20 07:15:42;;;;;;;20.70;15.00;;;17.40;99.90;;;;;;5031233;28;20029;-84
2021/08/20 07:18:08;;;;;;;17.13;13.15;;;17.50;99.90;;;;;;5019102;28;20039;-84
2021/08/20 07:20:33;;;;;;;19.15;13.85;;;17.50;99.90;;;;;;5037188;28;20025;-84
2021/08/20 07:22:59;;;;;;;19.77;14.52;;;17.60;99.90;;;;;;5037478;28;20386;-84
2021/08/20 07:25:25;;;;;;;18.13;14.00;;;17.60;99.90;;;;;;5026919;28;20116;-84
2021/08/20 07:27:51;;;;;;;18.48;14.55;;;17.70;99.90;;;;;;5036307;28;20029;-84
2021/08/20 07:30:16;;;;;;;17.42;13.50;;;17.70;99.90;;;;;;5019969;28;20021;-84
2021/08/20 07:32:43;;;;;;;15.55;12.20;;;17.80;99.90;;;;;;5018037;28;20021;-83
2021/08/20 07:35:09;;;;;;;16.95;13.45;;;17.80;99.90;;;;;;5022006;28;20474;-84
2021/08/20 07:37:34;;;;;;;23.75;14.68;;;17.80;99.90;;;;;;5017445;28;20071;-84
2021/08/20 07:40:00;;;;;;;18.58;15.13;;;17.90;99.90;;;;;;5004451;28;20025;-84
2021/08/20 07:42:26;;;;;;;17.98;15.52;;;17.90;99.90;;;;;;5053531;28;20036;-82
2021/08/20 07:44:53;;;;;;;20.08;16.10;;;17.90;99.90;;;;;;5037358;28;20082;-84
2021/08/20 07:47:19;;;;;;;18.45;14.85;;;18.00;99.90;;;;;;5037190;28;20021;-84
2021/08/20 07:49:44;;;;;;;16.27;14.10;;;18.00;99.90;;;;;;5020581;28;20025;-84
2021/08/20 07:52:10;;;;;;;17.33;13.77;;;18.00;99.90;;;;;;5020240;28;20057;-84
2021/08/20 07:54:36;;;;;;;17.20;13.93;;;18.00;99.90;;;;;;5018025;28;20037;-83
2021/08/20 07:57:03;;;;;;;17.83;13.90;;;18.10;99.90;;;;;;5053084;28;20025;-83
2021/08/20 07:59:28;;;;;;;15.00;12.45;;;18.10;99.90;;;;;;5036605;28;20048;-83
2021/08/20 08:01:54;;;;;;;18.77;14.00;;;18.20;99.90;;;;;;5066204;28;20490;-83
2021/08/20 08:04:20;;;;;;;15.82;13.43;;;18.20;99.90;;;;;;5041775;28;20112;-83
2021/08/20 08:06:45;;;;;;;16.25;14.15;;;18.20;99.90;;;;;;5023657;28;20037;-83
2021/08/20 08:09:11;;;;;;;15.82;13.05;;;18.30;99.90;;;;;;5053090;28;20033;-83
2021/08/20 08:11:37;;;;;;;16.80;13.43;;;18.30;99.90;;;;;;5052933;28;20021;-83
2021/08/20 08:14:05;;;;;;;16.15;12.38;;;18.30;99.90;;;;;;5036509;28;20036;-84
2021/08/20 08:16:36;;;;;;;17.25;14.30;;;18.40;99.90;;;;;;5036322;28;20092;-83
2021/08/20 08:19:06;;;;;;;16.60;13.88;;;18.40;99.90;;;;;;5054373;28;20400;-84
2021/08/20 08:21:33;;;;;;;14.57;12.00;;;18.40;99.90;;;;;;5036367;28;20017;-83
2021/08/20 08:23:59;;;;;;;15.13;13.20;;;18.50;99.90;;;;;;5036401;28;20029;-83
2021/08/20 08:26:25;;;;;;;15.90;13.70;;;18.50;99.90;;;;;;5052904;28;20033;-84
2021/08/20 08:28:53;;;;;;;13.35;11.75;;;18.50;99.80;;;;;;5035955;28;20111;-84
2021/08/20 08:31:20;;;;;;;14.50;12.32;;;18.60;99.90;;;;;;5045156;28;20120;-84
2021/08/20 08:33:45;;;;;;;15.25;13.38;;;18.60;99.80;;;;;;5069216;28;20199;-84
2021/08/20 08:36:11;;;;;;;15.45;13.20;;;18.70;99.70;;;;;;5036421;28;20025;-84
2021/08/20 08:38:36;;;;;;;14.75;12.85;;;18.70;99.70;;;;;;5055978;28;20129;-83
2021/08/20 08:41:03;;;;;;;14.48;11.30;;;18.70;99.70;;;;;;5052545;28;20552;-85
2021/08/20 08:43:29;;;;;;;13.18;10.82;;;18.80;99.70;;;;;;5052328;28;20497;-84
2021/08/20 08:45:56;;;;;;;15.80;12.48;;;18.80;99.70;;;;;;5039053;28;20040;-85
2021/08/20 08:48:23;;;;;;;16.88;14.52;;;18.90;99.70;;;;;;5035948;28;20510;-82
2021/08/20 08:50:50;;;;;;;16.55;13.90;;;18.90;99.60;;;;;;5035561;28;20048;-81
2021/08/20 08:53:18;;;;;;;16.95;15.15;;;19.00;99.60;;;;;;5069350;28;20033;-82
2021/08/20 08:55:49;;;;;;;16.75;14.88;;;19.00;99.50;;;;;;5051935;28;20021;-81
2021/08/20 08:58:15;;;;;;;16.55;14.13;;;19.00;99.40;;;;;;5035653;28;20497;-82
2021/08/20 09:00:41;;;;;;;16.15;13.80;;;19.10;99.40;;;;;;5035547;28;20416;-82
2021/08/20 09:03:07;;;;;;;16.80;14.30;;;19.10;99.40;;;;;;5052299;28;20171;-82
2021/08/20 09:05:43;;;;;;;17.10;15.27;;;19.20;99.40;;;;;;5048618;28;20131;-82
2021/08/20 09:08:14;;;;;;;16.50;14.65;;;19.20;99.40;;;;;;5035542;28;20422;-82
2021/08/20 09:11:13;;;;;;;16.25;13.48;;;19.30;99.40;;;;;;5051159;28;20021;-81
2021/08/20 09:13:38;;;;;;;15.80;13.98;;;19.40;99.40;;;;;;5019655;28;20119;-81
2021/08/20 09:16:12;;;;;;;15.85;14.00;;;19.50;99.30;;;;;;5059774;28;20120;-81
2021/08/20 09:18:40;;;;;;;15.10;13.50;;;19.50;99.20;;;;;;5022748;28;20387;-82
2021/08/20 09:21:07;;;;;;;13.75;12.18;;;19.50;99.10;;;;;;5016591;28;20149;-81
2021/08/20 09:23:33;;;;;;;15.85;14.15;;;19.60;99.10;;;;;;5035404;28;20046;-81
2021/08/20 09:25:59;;;;;;;16.70;14.65;;;19.60;98.90;;;;;;5017556;28;20124;-81
2021/08/20 09:28:34;;;;;;;15.52;13.93;;;19.60;98.60;;;;;;5004666;28;20113;-82
2021/08/20 09:31:08;;;;;;;17.83;13.63;;;19.70;98.70;;;;;;5022550;28;20020;-82
2021/08/20 09:33:43;;;;;;;16.20;13.65;;;19.70;98.60;;;;;;5035033;28;20025;-82
2021/08/20 09:36:11;;;;;;;15.43;13.35;;;19.80;98.20;;;;;;5052259;28;20427;-82
2021/08/20 09:38:42;;;;;;;14.73;12.25;;;19.80;98.10;;;;;;5035103;28;20038;-81
2021/08/20 09:41:11;;;;;;;13.80;12.30;;;19.90;98.00;;;;;;5045013;28;20025;-82
2021/08/20 09:43:39;;;;;;;13.25;11.23;;;20.00;98.10;;;;;;5052368;28;20441;-82
2021/08/20 09:46:06;;;;;;;13.07;11.38;;;20.00;98.00;;;;;;5034579;28;20029;-82
2021/08/20 09:49:06;;;;;;;13.75;11.45;;;20.10;98.00;;;;;;5034180;28;20025;-82
2021/08/20 09:51:51;;;;;;;14.40;11.82;;;20.10;97.90;;;;;;5034666;28;20060;-82
2021/08/20 09:54:22;;;;;;;15.10;11.77;;;20.20;97.60;;;;;;5034440;28;20044;-82
2021/08/20 09:56:48;;;;;;;12.80;11.15;;;20.20;97.00;;;;;;5052433;28;20485;-81
2021/08/20 09:59:15;;;;;;;14.10;10.88;;;20.30;97.20;;;;;;5034759;28;20029;-82
2021/08/20 10:01:45;;;;;;;13.75;10.90;;;20.30;97.20;;;;;;5034520;28;20028;-81
2021/08/20 10:04:15;;;;;;;13.40;11.77;;;20.40;97.20;;;;;;5035088;28;20041;-81
2021/08/20 10:06:43;;;;;;;13.10;10.88;;;20.40;96.60;;;;;;5030653;28;20461;-81
2021/08/20 10:09:13;;;;;;;12.27;10.38;;;20.50;96.80;;;;;;5017913;28;20455;-81
2021/08/20 10:11:44;;;;;;;11.57;8.80;;;20.50;96.80;;;;;;5052564;28;20114;-82
2021/08/20 10:14:11;;;;;;;12.13;9.80;;;20.60;96.80;;;;;;5033339;28;20382;-82
2021/08/20 10:16:38;;;;;;;12.40;9.52;;;20.70;96.40;;;;;;5016054;28;20013;-82
2021/08/20 10:19:06;;;;;;;13.43;11.13;;;20.70;96.10;;;;;;5006094;28;20387;-82
2021/08/20 10:21:35;;;;;;;10.45;9.35;;;20.80;95.80;;;;;;5032711;28;20021;-82
2021/08/20 10:24:01;;;;;;;10.20;8.10;;;20.80;95.80;;;;;;5024024;28;20084;-81
2021/08/20 10:26:29;;;;;;;10.90;7.60;;;20.90;95.40;;;;;;5009874;28;20029;-82
2021/08/20 10:28:56;;;;;;;9.95;8.15;;;20.90;95.00;;;;;;5034159;28;20036;-81
2021/08/20 10:31:23;;;;;;;9.57;8.13;;;20.90;95.00;;;;;;5032616;28;20036;-81
2021/08/20 10:33:49;;;;;;;10.52;8.55;;;20.90;94.80;;;;;;5021963;28;20032;-81
2021/08/20 10:36:15;;;;;;;10.85;7.63;;;20.90;94.20;;;;;;5052092;28;20024;-82
2021/08/20 10:38:49;;;;;;;8.20;6.32;;;20.90;94.40;;;;;;5034059;28;20025;-82
2021/08/20 10:41:20;;;;;;;8.48;6.40;;;20.90;94.40;;;;;;5017700;28;20032;-80
2021/08/20 10:43:48;;;;;;;;;;;21.00;94.40;;;;;;5034424;28;20086;-81
2021/08/20 10:46:36;;;;;;;7.80;5.40;;;21.00;94.10;;;;;;5034027;28;19911;-80
2021/08/20 10:49:10;;;;;;;10.38;7.15;;;21.00;92.90;;;;;;5017776;28;20037;-82
2021/08/20 10:51:52;;;;;;;8.38;6.20;;;21.00;93.20;;;;;;5046200;23;20060;-81
2021/08/20 10:54:42;;;;;;;6.78;4.63;;;21.00;93.30;;;;;;5065768;28;20032;-82
2021/08/20 10:57:33;;;;;;;4.97;3.17;;;21.10;93.40;;;;;;5073781;28;20024;-81
2021/08/20 10:59:59;;;;;;;3.83;2.53;;;21.10;93.10;;;;;;5027531;28;20048;-81
2021/08/20 11:02:25;;;;;;;4.00;1.92;;;21.10;92.80;;;;;;5073829;28;20012;-82
2021/08/20 11:05:14;;;;;;;3.63;1.85;;;21.10;92.30;;;;;;5073975;28;20143;-82
2021/08/20 11:07:40;;;;;;;3.70;2.53;;;21.10;92.10;;;;;;5050990;28;20043;-82
2021/08/20 11:10:09;;;;;;;3.85;2.60;;;21.20;92.00;;;;;;5066229;28;20028;-81
2021/08/20 11:12:38;;;;;;;7.00;4.60;;;21.20;92.10;;;;;;5073488;28;20023;-81
2021/08/20 11:15:25;;;;;;;5.55;3.72;;;21.30;91.50;;;;;;5073546;28;20031;-81
2021/08/20 11:18:00;;;;;;;4.03;2.92;;;21.40;92.00;;;;;;5060287;28;20028;-82
2021/08/20 11:20:46;;;;;;;4.57;2.78;;;21.50;91.90;;;;;;5053759;28;20421;-81
2021/08/20 11:23:14;;;;;;;3.97;3.20;;;21.60;91.90;;;;;;5055118;28;20027;-80
2021/08/20 11:25:49;;;;;;;6.05;4.40;;;21.60;91.50;;;;;;5063015;28;20021;-81
2021/08/20 11:28:26;;;;;;;5.75;4.15;;;21.60;90.60;;;;;;5071263;28;20035;-82
2021/08/20 11:31:04;;;;;;;5.72;3.92;;;21.70;90.80;;;;;;5091557;28;20130;-82
2021/08/20 11:33:29;;;;;;;6.55;4.65;;;21.70;90.70;;;;;;5093827;28;20106;-82
2021/08/20 11:36:01;;;;;;;6.03;4.40;;;21.80;91.00;;;;;;5084276;28;20492;-82
2021/08/20 11:38:36;;;;;;;6.57;5.10;;;22.00;91.30;;;;;;5077080;28;20020;-82
2021/08/20 11:41:13;;;;;;;7.15;5.07;;;22.00;90.50;;;;;;5066202;28;20024;-82
2021/08/20 11:43:46;;;;;;;6.13;4.57;;;22.10;90.30;;;;;;5075527;28;20020;-82
2021/08/20 11:46:12;;;;;;;6.50;4.63;;;22.20;90.60;;;;;;5065650;28;20053;-82
2021/08/20 11:48:47;;;;;;;6.75;5.57;;;22.30;90.60;;;;;;5078454;28;20024;-82
2021/08/20 11:51:38;;;;;;;6.82;5.13;;;22.40;89.80;;;;;;5052413;28;20040;-82
2021/08/20 11:54:05;;;;;;;;;;;22.50;89.70;;;;;;5023987;28;20036;-82
2021/08/20 11:56:31;;;;;;;8.63;6.25;;;22.50;89.60;;;;;;5036868;28;19909;-82
2021/08/20 11:58:57;;;;;;;8.07;6.10;;;22.60;89.70;;;;;;5054695;28;20105;-82
2021/08/20 12:01:28;;;;;;;6.28;5.20;;;22.70;90.00;;;;;;5055038;28;20031;-82
2021/08/20 12:03:58;;;;;;;6.88;5.60;;;22.70;90.10;;;;;;5053096;28;20040;-83
2021/08/20 12:06:25;;;;;;;7.55;5.82;;;22.80;90.20;;;;;;5036743;28;20091;-82
2021/08/20 12:08:57;;;;;;;7.85;6.43;;;22.90;89.80;;;;;;5036395;28;20071;-83
2021/08/20 12:11:25;;;;;;;7.85;6.07;;;23.00;88.80;;;;;;5036988;28;20033;-83
2021/08/20 12:13:53;;;;;;;6.47;5.18;;;23.10;87.50;;;;;;5036618;28;20514;-83
2021/08/20 12:16:39;;;;;;;6.82;4.90;;;23.10;87.90;;;;;;5036475;28;20024;-82
2021/08/20 12:19:21;;;;;;;8.50;7.20;;;23.10;88.40;;;;;;5036462;28;20025;-83
2021/08/20 12:22:03;;;;;;;9.45;7.13;;;23.20;87.60;;;;;;5047650;28;20435;-83
2021/08/20 12:24:38;;;;;;;8.23;6.78;;;23.20;88.70;;;;;;5042221;28;20044;-83
2021/08/20 12:27:27;;;;;;;8.23;7.00;;;23.30;89.50;;;;;;5048185;28;20025;-82
2021/08/20 12:33:15;;;;;;;11.13;8.57;;;23.50;89.90;;;;;;5051222;28;20095;-83
2021/08/20 12:35:49;;;;;;;8.95;7.70;;;23.50;88.70;;;;;;5005747;28;20033;-82
2021/08/20 12:38:20;;;;;;;9.07;8.18;;;23.60;88.00;;;;;;5036246;28;20048;-82
2021/08/20 12:40:51;;;;;;;7.60;6.78;;;23.60;86.00;;;;;;5036320;28;20478;-83